ADDS METAR Data INFO
IDs: Format: Raw Decoded Include TAF

Data at: 1244 UTC 19 Oct 2017

PAPN 191156Z AUTO 33012KT 10SM BKN035 BKN043 03/M03 A2957 RMK AO2 SLP014 T00281028 10033 20011 50001
PAPN 191056Z AUTO 34010KT 10SM SCT037 02/M04 A2957 RMK AO2 SLP017 T00171039 FZRANO
PAPN 190956Z AUTO 34010KT 10SM BKN037 02/M04 A2957 RMK AO2 SLP017 T00171039 FZRANO
PAPN 190856Z AUTO 34010KT 10SM BKN039 02/M04 A2956 RMK AO2 SLP013 T00171039 53012 FZRANO
PAPN 190756Z AUTO 34013KT 10SM BKN039 02/M04 A2955 RMK AO2 SLP008 T00221039 400501011 FZRANO
PAPN 190656Z AUTO 34017KT 10SM BKN041 BKN055 03/M04 A2954 RMK AO2 PK WND 32027/0611 SLP005 T00281039
PAPN 190556Z AUTO 33019G28KT 10SM SCT037 SCT047 03/M02 A2953 RMK AO2 PK WND 33030/0532 RAE23 SLP001 P0000 60000 T00331022 10050 20033 51005
PAPN 190456Z AUTO 32018G26KT 10SM -RA SCT038 BKN049 OVC065 04/M02 A2952 RMK AO2 PK WND 32026/0450 RAB36 SLP998 P0000 T00391022
PAPN 190356Z AUTO 32020G27KT 10SM SCT041 03/M03 A2952 RMK AO2 PK WND 31028/0337 SLP999 T00331033
PAPN 190256Z AUTO 32022G27KT 10SM SCT040 04/M02 A2951 RMK AO2 PK WND 32028/0224 SLP996 T00391022 55002
PAPN 190156Z AUTO 32022G26KT 10SM FEW033 04/M03 A2951 RMK AO2 PK WND 32027/0142 SLP994 T00441033
PAPN 190056Z AUTO 32018G27KT 10SM BKN031 04/M02 A2951 RMK AO2 PK WND 32031/0028 SLP996 T00441022
PAPN 182256Z AUTO 32018KT 10SM BKN038 OVC045 04/M02 A2953 RMK AO2 PK WND 31026/2238 SLP001 T00441022
PAPN 182156Z AUTO 32016KT 10SM BKN040 OVC048 04/M03 A2954 RMK AO2 SLP004 T00441028
PAPN 182056Z AUTO 32014KT 10SM SCT042 OVC049 04/M04 A2955 RMK AO2 SLP007 T00441044 50009
PAPN 181956Z AUTO 33011KT 10SM BKN043 OVC050 03/M03 A2955 RMK AO2 SLP009 T00331033
PAPN 181856Z AUTO 35005KT 10SM BKN040 OVC047 01/M03 A2954 RMK AO2 SLP005 T00111033 FZRANO
PAPN 181756Z AUTO 36011KT 10SM BKN041 01/M04 A2952 RMK AO2 SLP998 T00111039 10017 21011 53009 FZRANO
PAPN 181656Z AUTO 03006KT 10SM OVC037 00/M03 A2951 RMK AO2 SLP994 T00001028 FZRANO
PAPN 181556Z AUTO 36009KT 10SM BKN033 M01/M03 A2951 RMK AO2 SLP993 T10061033 FZRANO
PAPN 181456Z AUTO 36010KT 10SM FEW029 M01/M03 A2949 RMK AO2 SLP989 T10061033 51007 FZRANO
PAPN 181446Z AUTO 01009KT 10SM FEW029 M01/M04 A2949 RMK AO2 FZRANO
PAPN 181356Z AUTO 01009KT 10SM OVC029 M01/M03 A2949 RMK AO2 SLP988 T10061033 FZRANO
PAPN 181324Z AUTO 01010KT 10SM BKN029 M01/M03 A2948 RMK AO2 FZRANO
PAPN 181256Z AUTO 01012KT 10SM SCT031 M01/M03 A2948 RMK AO2 SLP983 T10061033 FZRANO
PAPN 181156Z AUTO 36010KT 10SM FEW055 M01/M03 A2947 RMK AO2 SLP982 T10111028 10011 21011 51015 FZRANO
PAPN 181056Z AUTO 36011KT 10SM SCT047 OVC060 00/M02 A2946 RMK AO2 SLP978 T00001022 FZRANO
PAPN 180956Z AUTO 01009KT 10SM BKN055 00/M03 A2944 RMK AO2 SLP972 T00001028 FZRANO
PAPN 180856Z AUTO 01012KT 10SM CLR 01/M03 A2943 RMK AO2 SLP967 T00061033 53026 FZRANO
PAPN 180756Z AUTO 36015KT 10SM CLR 01/M03 A2940 RMK AO2 SLP958 T00061033 400560006 FZRANO
PAPN 180656Z AUTO 36015KT 10SM CLR 01/M03 A2937 RMK AO2 SLP948 T00061028 FZRANO
PAPN 180556Z AUTO 36011KT 10SM CLR 01/M02 A2935 RMK AO2 SLP940 T00061022 10044 20006 53029 FZRANO
PAPN 180456Z AUTO 01013KT 10SM CLR 02/M01 A2932 RMK AO2 SLP931 T00171011 FZRANO
PAPN 180356Z AUTO 01013KT 10SM CLR 02/M01 A2929 RMK AO2 SLP920 T00221006 FZRANO
PAPN 180256Z AUTO 01012KT 10SM CLR 03/01 A2926 RMK AO2 SLP911 T00330006 53025
PAPN 180156Z AUTO 02013KT 10SM FEW090 04/01 A2924 RMK AO2 SLP902 T00440011
PAPN 180056Z AUTO 02012KT 10SM OVC090 04/01 A2921 RMK AO2 SLP894 T00390006